Time;durP1;ratioP1;P1;durP2;ratioP2;P2;SDS_P1;SDS_P2;PMS_P1;PMS_P2;Temp;Humidity;BMP_temperature;BMP_pressure;BME280_temperature;BME280_humidity;BME280_pressure;Samples;Min_cycle;Max_cycle;Signal;HPM_P1;HPM_P2
2022/03/02 00:02:15;;;;;;;40.33;20.93;;;7.60;99.90;;;;;;4935936;28;20205;-79
2022/03/02 00:04:41;;;;;;;37.80;21.10;;;7.50;99.90;;;;;;4953838;28;20208;-79
2022/03/02 00:07:07;;;;;;;42.10;20.37;;;7.50;99.90;;;;;;4939894;28;20200;-79
2022/03/02 00:09:32;;;;;;;37.97;20.97;;;7.50;99.90;;;;;;4956685;28;20204;-78
2022/03/02 00:11:59;;;;;;;36.37;19.90;;;7.50;99.90;;;;;;4970970;28;20199;-79
2022/03/02 00:14:24;;;;;;;37.47;20.53;;;7.50;99.90;;;;;;4955007;28;20632;-78
2022/03/02 00:16:50;;;;;;;38.47;20.53;;;7.50;99.90;;;;;;4933961;28;20235;-79
2022/03/02 00:19:17;;;;;;;40.93;20.93;;;7.50;99.90;;;;;;4931492;28;20215;-79
2022/03/02 00:21:43;;;;;;;38.80;20.37;;;7.50;99.90;;;;;;4962413;28;20207;-79
2022/03/02 00:24:08;;;;;;;40.40;20.10;;;7.40;99.90;;;;;;4947740;28;20196;-77
2022/03/02 00:26:34;;;;;;;37.70;20.77;;;7.40;99.90;;;;;;4946057;28;20244;-80
2022/03/02 00:29:01;;;;;;;38.27;20.33;;;7.40;99.90;;;;;;4948231;28;22550;-78
2022/03/02 00:31:27;;;;;;;38.10;19.80;;;7.50;99.90;;;;;;4946554;28;20609;-79
2022/03/02 00:33:53;;;;;;;42.50;20.97;;;7.50;99.90;;;;;;4943801;28;20552;-77
2022/03/02 00:36:18;;;;;;;39.63;21.03;;;7.50;99.90;;;;;;4928863;28;20188;-78
2022/03/02 00:38:44;;;;;;;41.10;20.40;;;7.50;99.90;;;;;;4943883;28;20247;-77
2022/03/02 00:41:10;;;;;;;36.13;20.00;;;7.50;99.90;;;;;;4979985;28;20589;-79
2022/03/02 00:43:36;;;;;;;40.43;21.37;;;7.50;99.90;;;;;;4948717;28;20247;-78
2022/03/02 00:46:01;;;;;;;43.60;20.57;;;7.50;99.90;;;;;;4949011;28;20196;-79
2022/03/02 00:48:27;;;;;;;37.87;20.33;;;7.50;99.90;;;;;;4947842;28;20238;-78
2022/03/02 00:50:53;;;;;;;37.87;20.60;;;7.50;99.90;;;;;;4964275;28;20191;-79
2022/03/02 00:53:19;;;;;;;39.50;20.80;;;7.50;99.90;;;;;;4963607;28;20511;-79
2022/03/02 00:55:45;;;;;;;39.17;21.07;;;7.50;99.90;;;;;;4962058;28;20222;-78
2022/03/02 00:58:11;;;;;;;37.87;20.27;;;7.50;99.90;;;;;;4931737;28;20231;-79
2022/03/02 01:00:37;;;;;;;39.80;20.67;;;7.50;99.90;;;;;;4980674;28;20192;-78
2022/03/02 01:03:03;;;;;;;38.90;20.63;;;7.50;99.90;;;;;;4963437;28;20638;-78
2022/03/02 01:05:29;;;;;;;37.37;20.57;;;7.60;99.90;;;;;;4964257;28;20286;-79
2022/03/02 01:07:55;;;;;;;37.43;20.90;;;7.50;99.90;;;;;;4932438;28;20323;-79
2022/03/02 01:10:21;;;;;;;39.57;21.50;;;7.60;99.90;;;;;;4933420;28;20258;-78
2022/03/02 01:12:46;;;;;;;42.27;21.27;;;7.50;99.90;;;;;;4963947;28;20219;-78
2022/03/02 01:15:13;;;;;;;39.93;20.57;;;7.50;99.90;;;;;;4948997;28;20288;-79
2022/03/02 01:17:40;;;;;;;38.80;20.80;;;7.60;99.90;;;;;;4977051;28;20200;-78
2022/03/02 01:20:08;;;;;;;38.97;20.57;;;7.60;99.90;;;;;;4962659;28;20196;-79
2022/03/02 01:22:34;;;;;;;39.50;21.07;;;7.60;99.90;;;;;;4962442;28;20643;-79
2022/03/02 01:25:00;;;;;;;38.60;20.13;;;7.60;99.90;;;;;;4979713;28;20311;-79
2022/03/02 01:27:26;;;;;;;39.13;20.80;;;7.60;99.90;;;;;;4961397;28;20254;-78
2022/03/02 01:29:52;;;;;;;39.43;21.43;;;7.60;99.90;;;;;;4964490;28;20196;-79
2022/03/02 01:32:19;;;;;;;38.00;20.97;;;7.60;99.90;;;;;;4949923;28;20744;-78
2022/03/02 01:34:45;;;;;;;42.47;21.20;;;7.60;99.90;;;;;;4963188;28;20236;-79
2022/03/02 01:37:11;;;;;;;38.60;20.67;;;7.60;99.90;;;;;;4962684;28;20189;-78
2022/03/02 01:39:37;;;;;;;37.73;19.53;;;7.70;99.90;;;;;;4947880;28;20274;-78
2022/03/02 01:42:05;;;;;;;39.53;20.67;;;7.60;99.90;;;;;;4963562;28;20274;-78
2022/03/02 01:44:35;;;;;;;39.80;20.43;;;7.70;99.90;;;;;;4938457;28;20698;-79
2022/03/02 01:47:02;;;;;;;41.30;20.43;;;7.60;99.90;;;;;;4968982;28;20188;-79
2022/03/02 01:49:28;;;;;;;41.33;20.73;;;7.60;99.90;;;;;;4961452;28;20284;-79
2022/03/02 01:51:54;;;;;;;36.23;19.17;;;7.50;99.90;;;;;;4947009;28;20275;-77
2022/03/02 01:54:19;;;;;;;41.23;21.00;;;7.60;99.90;;;;;;4960683;28;20213;-78
2022/03/02 01:56:46;;;;;;;37.73;20.40;;;7.50;99.90;;;;;;4930894;28;20804;-80
2022/03/02 01:59:11;;;;;;;39.60;20.87;;;7.50;99.90;;;;;;4946731;28;20601;-79
2022/03/02 02:01:37;;;;;;;34.97;19.53;;;7.40;99.90;;;;;;4963636;28;20185;-79
2022/03/02 02:04:04;;;;;;;35.40;20.40;;;7.50;99.90;;;;;;4980295;28;20310;-80
2022/03/02 02:06:33;;;;;;;41.10;21.00;;;7.40;99.90;;;;;;4947195;28;20356;-78
2022/03/02 02:08:59;;;;;;;40.40;21.33;;;7.40;99.90;;;;;;4953851;28;20222;-79
2022/03/02 02:11:25;;;;;;;39.73;21.23;;;7.40;99.90;;;;;;4980564;28;20491;-78
2022/03/02 02:13:51;;;;;;;37.13;20.77;;;7.40;99.90;;;;;;4946379;28;20244;-80
2022/03/02 02:16:20;;;;;;;41.10;20.33;;;7.40;99.90;;;;;;4963142;28;20706;-77
2022/03/02 02:18:46;;;;;;;40.07;20.00;;;7.30;99.90;;;;;;4945911;28;20760;-78
2022/03/02 02:21:11;;;;;;;45.17;21.97;;;7.30;99.90;;;;;;4962007;28;20188;-78
2022/03/02 02:23:39;;;;;;;42.63;20.33;;;7.30;99.90;;;;;;4981768;28;20201;-79
2022/03/02 02:26:05;;;;;;;40.33;20.70;;;7.20;99.90;;;;;;4945958;28;20784;-79
2022/03/02 02:28:32;;;;;;;35.80;20.13;;;7.20;99.90;;;;;;4952621;28;20197;-77
2022/03/02 02:30:59;;;;;;;40.27;20.33;;;7.20;99.90;;;;;;4946919;28;20193;-78
2022/03/02 02:33:26;;;;;;;44.30;20.57;;;7.20;99.90;;;;;;4963810;28;20200;-77
2022/03/02 02:35:53;;;;;;;46.27;21.27;;;7.20;99.90;;;;;;4980025;28;20203;-78
2022/03/02 02:38:21;;;;;;;40.03;20.30;;;7.20;99.90;;;;;;4963445;28;20240;-78
2022/03/02 02:40:51;;;;;;;35.67;20.47;;;7.10;99.90;;;;;;4963656;28;20264;-78
2022/03/02 02:43:19;;;;;;;37.87;20.00;;;7.10;99.90;;;;;;4970149;28;20197;-79
2022/03/02 02:45:46;;;;;;;36.57;19.73;;;7.10;99.90;;;;;;4980547;28;20189;-77
2022/03/02 02:48:12;;;;;;;40.77;19.83;;;7.10;99.90;;;;;;4932499;28;20192;-78
2022/03/02 02:50:37;;;;;;;40.33;19.57;;;7.10;99.90;;;;;;4965362;28;20200;-78
2022/03/02 02:53:09;;;;;;;36.43;19.30;;;7.10;99.90;;;;;;4947662;28;20197;-78
2022/03/02 02:55:37;;;;;;;37.87;18.60;;;7.10;99.90;;;;;;4964628;28;20220;-78
2022/03/02 02:58:04;;;;;;;35.83;18.80;;;7.00;99.90;;;;;;4946690;28;20272;-78
2022/03/02 03:00:34;;;;;;;34.57;18.53;;;7.00;99.90;;;;;;4982959;28;20208;-78
2022/03/02 03:03:00;;;;;;;36.13;18.90;;;7.00;99.90;;;;;;4982490;28;20646;-77
2022/03/02 03:05:29;;;;;;;35.43;19.23;;;7.00;99.90;;;;;;4963547;28;20216;-78
2022/03/02 03:07:56;;;;;;;34.83;18.70;;;7.00;99.90;;;;;;4982120;28;20203;-77
2022/03/02 03:10:25;;;;;;;35.90;18.53;;;7.00;99.90;;;;;;4949495;28;20200;-77
2022/03/02 03:12:51;;;;;;;36.20;18.13;;;7.00;99.90;;;;;;4963695;28;20216;-76
2022/03/02 03:15:19;;;;;;;35.27;18.40;;;7.00;99.90;;;;;;4951248;28;20647;-77
2022/03/02 03:17:45;;;;;;;36.43;18.10;;;7.10;99.90;;;;;;4980586;28;20212;-78
2022/03/02 03:20:14;;;;;;;33.40;18.83;;;6.90;99.90;;;;;;4963565;28;20193;-77
2022/03/02 03:22:40;;;;;;;37.37;18.67;;;7.00;99.90;;;;;;4963627;28;20180;-78
2022/03/02 03:25:07;;;;;;;38.53;19.13;;;7.00;99.90;;;;;;4980372;28;20228;-78
2022/03/02 03:27:34;;;;;;;32.43;17.90;;;7.00;99.90;;;;;;4979977;28;20227;-79
2022/03/02 03:29:59;;;;;;;35.53;19.57;;;6.90;99.90;;;;;;4961255;28;20200;-79
2022/03/02 03:32:26;;;;;;;36.23;19.80;;;7.00;99.90;;;;;;4943439;28;20220;-80
2022/03/02 03:34:53;;;;;;;33.53;17.83;;;7.00;99.90;;;;;;4963266;28;20216;-80
2022/03/02 03:37:18;;;;;;;33.20;18.40;;;6.90;99.90;;;;;;4969119;28;20655;-80
2022/03/02 03:39:44;;;;;;;34.73;17.90;;;6.90;99.90;;;;;;4978240;28;20282;-81
2022/03/02 03:42:10;;;;;;;34.77;17.83;;;6.90;99.90;;;;;;4933665;28;20192;-80
2022/03/02 03:44:36;;;;;;;33.57;18.83;;;6.90;99.90;;;;;;4978378;28;20671;-78
2022/03/02 03:47:03;;;;;;;37.53;18.30;;;6.80;99.90;;;;;;4933783;28;20681;-78
2022/03/02 03:49:29;;;;;;;35.30;18.73;;;6.80;99.90;;;;;;4951220;28;20196;-78
2022/03/02 03:51:54;;;;;;;32.03;18.00;;;6.80;99.90;;;;;;4947767;28;20192;-77
2022/03/02 03:54:20;;;;;;;34.07;17.83;;;6.70;99.90;;;;;;4933604;28;21096;-77
2022/03/02 03:56:46;;;;;;;37.40;19.00;;;6.70;99.90;;;;;;4965087;28;20188;-77
2022/03/02 03:59:12;;;;;;;32.77;17.67;;;6.70;99.90;;;;;;4981181;28;20210;-77
2022/03/02 04:01:37;;;;;;;35.00;17.73;;;6.70;99.90;;;;;;4940968;28;20692;-77
2022/03/02 04:04:03;;;;;;;36.27;17.73;;;6.70;99.90;;;;;;4936479;28;20275;-77
2022/03/02 04:06:29;;;;;;;33.97;18.13;;;6.70;99.90;;;;;;4937440;28;20300;-78
2022/03/02 04:08:55;;;;;;;35.07;17.70;;;6.70;99.90;;;;;;4985298;28;20223;-78
2022/03/02 04:11:20;;;;;;;35.40;17.90;;;6.80;99.90;;;;;;4994611;28;20576;-78
2022/03/02 04:13:46;;;;;;;34.50;17.47;;;6.80;99.90;;;;;;4960993;28;20262;-78
2022/03/02 04:16:11;;;;;;;36.60;18.10;;;6.80;99.90;;;;;;4972829;28;20220;-78
2022/03/02 04:18:37;;;;;;;34.03;17.50;;;6.80;99.90;;;;;;4970524;28;20840;-78
2022/03/02 04:21:03;;;;;;;36.63;17.87;;;6.80;99.90;;;;;;4956583;28;20265;-78
2022/03/02 04:23:29;;;;;;;32.50;17.90;;;6.80;99.90;;;;;;4971152;28;20197;-78
2022/03/02 04:25:55;;;;;;;33.73;17.30;;;6.80;99.90;;;;;;4954054;28;21134;-77
2022/03/02 04:28:21;;;;;;;33.03;17.80;;;6.80;99.90;;;;;;4982754;28;20272;-79
2022/03/02 04:30:47;;;;;;;36.10;18.63;;;6.80;99.90;;;;;;4934631;28;20215;-77
2022/03/02 04:33:14;;;;;;;37.83;18.73;;;6.80;99.90;;;;;;4962545;28;20193;-78
2022/03/02 04:35:40;;;;;;;36.70;18.80;;;6.80;99.90;;;;;;4946994;28;20284;-77
2022/03/02 04:38:06;;;;;;;34.80;17.90;;;6.70;99.90;;;;;;4965047;28;20592;-77
2022/03/02 04:40:32;;;;;;;36.43;18.53;;;6.70;99.90;;;;;;4947589;28;20188;-77
2022/03/02 04:42:59;;;;;;;34.50;17.17;;;6.70;99.90;;;;;;4963674;28;20262;-77
2022/03/02 04:45:27;;;;;;;33.90;18.83;;;6.70;99.90;;;;;;4979911;28;20196;-77
2022/03/02 04:47:54;;;;;;;36.07;18.73;;;6.70;99.90;;;;;;4962720;28;20669;-76
2022/03/02 04:50:20;;;;;;;33.67;18.00;;;6.70;99.90;;;;;;4948581;28;20188;-78
2022/03/02 04:52:47;;;;;;;42.67;18.37;;;6.70;99.90;;;;;;4963067;28;20249;-77
2022/03/02 04:55:13;;;;;;;36.47;17.77;;;6.70;99.90;;;;;;4961599;28;20336;-77
2022/03/02 04:57:46;;;;;;;34.93;18.70;;;6.70;99.90;;;;;;4978592;28;20239;-78
2022/03/02 05:00:13;;;;;;;32.97;17.93;;;6.70;99.90;;;;;;4963227;28;20192;-77
2022/03/02 05:02:40;;;;;;;32.70;18.10;;;6.70;99.90;;;;;;4961814;28;20188;-78
2022/03/02 05:05:07;;;;;;;33.57;18.17;;;6.60;99.90;;;;;;4946600;28;20197;-78
2022/03/02 05:07:32;;;;;;;38.17;18.70;;;6.60;99.90;;;;;;4979811;28;20268;-78
2022/03/02 05:09:58;;;;;;;35.23;18.30;;;6.60;99.90;;;;;;4968731;28;20283;-78
2022/03/02 05:12:24;;;;;;;33.10;17.37;;;6.60;99.90;;;;;;4947958;28;20744;-78
2022/03/02 05:14:50;;;;;;;37.33;19.13;;;6.50;99.90;;;;;;4964720;28;20606;-78
2022/03/02 05:17:16;;;;;;;36.87;17.83;;;6.60;99.90;;;;;;4948323;28;20914;-77
2022/03/02 05:19:41;;;;;;;33.57;17.20;;;6.50;99.90;;;;;;4945474;28;20219;-77
2022/03/02 05:22:07;;;;;;;36.43;19.10;;;6.50;99.90;;;;;;4946574;28;20805;-78
2022/03/02 05:24:34;;;;;;;38.17;18.20;;;6.50;99.90;;;;;;4945401;28;20200;-77
2022/03/02 05:27:00;;;;;;;33.93;18.07;;;6.50;99.90;;;;;;4951193;28;20270;-78
2022/03/02 05:29:25;;;;;;;36.17;18.67;;;6.50;99.90;;;;;;4948192;28;20659;-78
2022/03/02 05:31:51;;;;;;;38.17;18.00;;;6.40;99.90;;;;;;4966319;28;20193;-78
2022/03/02 05:34:17;;;;;;;37.20;18.10;;;6.40;99.90;;;;;;4967198;28;20284;-78
2022/03/02 05:36:42;;;;;;;35.30;18.10;;;6.40;99.90;;;;;;4938304;28;20193;-79
2022/03/02 05:39:08;;;;;;;35.27;18.57;;;6.40;99.90;;;;;;4974915;28;20195;-77
2022/03/02 05:41:34;;;;;;;37.70;18.27;;;6.50;99.90;;;;;;4949799;28;20204;-77
2022/03/02 05:44:01;;;;;;;40.13;18.97;;;6.40;99.90;;;;;;4949812;28;20212;-77
2022/03/02 05:46:27;;;;;;;39.63;18.63;;;6.50;99.90;;;;;;4967307;28;20347;-78
2022/03/02 05:48:54;;;;;;;35.47;18.30;;;6.50;99.90;;;;;;4934632;28;20192;-77
2022/03/02 05:51:20;;;;;;;34.33;17.60;;;6.50;99.90;;;;;;4953610;28;20223;-77
2022/03/02 05:53:46;;;;;;;35.73;18.00;;;6.50;99.90;;;;;;4949941;28;20340;-78
2022/03/02 05:56:12;;;;;;;39.63;19.13;;;6.50;99.90;;;;;;4950195;28;20197;-78
2022/03/02 05:58:37;;;;;;;34.63;17.60;;;6.50;99.90;;;;;;4980551;28;20236;-77
2022/03/02 06:01:04;;;;;;;35.37;18.67;;;6.40;99.90;;;;;;4936060;28;20259;-77
2022/03/02 06:03:31;;;;;;;36.80;17.90;;;6.50;99.90;;;;;;4983654;28;20180;-79
2022/03/02 06:05:57;;;;;;;36.47;18.30;;;6.50;99.90;;;;;;4937235;28;20204;-78
2022/03/02 06:08:23;;;;;;;33.10;17.50;;;6.50;99.90;;;;;;4949577;28;20778;-78
2022/03/02 06:10:49;;;;;;;34.47;18.33;;;6.60;99.90;;;;;;4983808;28;20204;-79
2022/03/02 06:13:16;;;;;;;35.60;18.77;;;6.60;99.90;;;;;;4965895;28;20216;-79
2022/03/02 06:15:44;;;;;;;35.37;17.33;;;6.60;99.90;;;;;;4948684;28;20220;-77
2022/03/02 06:18:10;;;;;;;36.00;17.23;;;6.60;99.90;;;;;;4954766;28;20244;-77
2022/03/02 06:20:36;;;;;;;35.57;19.33;;;6.60;99.90;;;;;;4950644;28;20215;-78
2022/03/02 06:23:02;;;;;;;37.13;17.23;;;6.60;99.90;;;;;;4978318;28;20252;-78
2022/03/02 06:25:28;;;;;;;38.07;18.80;;;6.60;99.90;;;;;;4950340;28;20259;-78
2022/03/02 06:27:54;;;;;;;38.73;17.83;;;6.60;99.90;;;;;;4963435;28;20222;-77
2022/03/02 06:30:20;;;;;;;39.00;19.07;;;6.60;99.90;;;;;;4949900;28;20196;-78
2022/03/02 06:32:46;;;;;;;36.73;18.23;;;6.60;99.90;;;;;;4955834;28;20200;-76
2022/03/02 06:35:12;;;;;;;37.73;17.33;;;6.60;99.90;;;;;;4964421;28;20219;-77
2022/03/02 06:37:38;;;;;;;31.80;17.57;;;6.60;99.90;;;;;;4964591;28;20188;-78
2022/03/02 06:40:08;;;;;;;32.70;16.83;;;6.60;99.90;;;;;;4980405;28;20683;-77
2022/03/02 06:42:39;;;;;;;37.43;18.73;;;6.60;99.90;;;;;;4978692;28;20208;-77
2022/03/02 06:45:12;;;;;;;32.97;17.00;;;6.60;99.90;;;;;;4984191;28;20227;-78
2022/03/02 06:47:56;;;;;;;37.50;18.60;;;6.60;99.90;;;;;;4933777;28;20263;-78
2022/03/02 06:50:25;;;;;;;32.70;17.00;;;6.60;99.90;;;;;;4965210;28;20238;-78
2022/03/02 06:52:54;;;;;;;34.77;18.03;;;6.60;99.90;;;;;;4965353;28;20316;-78
2022/03/02 06:55:21;;;;;;;32.67;16.90;;;6.70;99.90;;;;;;4981187;28;20303;-79
2022/03/02 06:57:59;;;;;;;33.97;16.20;;;6.70;99.90;;;;;;4949220;28;20238;-78
2022/03/02 07:00:25;;;;;;;32.87;16.63;;;6.80;99.90;;;;;;4963498;28;20261;-78
2022/03/02 07:03:01;;;;;;;32.50;17.43;;;6.80;99.90;;;;;;4965619;28;20710;-76
2022/03/02 07:05:27;;;;;;;35.43;16.83;;;6.80;99.90;;;;;;4982381;28;20187;-78
2022/03/02 07:07:52;;;;;;;32.57;17.13;;;6.90;99.90;;;;;;4961702;28;20312;-78
2022/03/02 07:10:18;;;;;;;33.87;16.93;;;6.90;99.90;;;;;;4965084;28;20284;-77
2022/03/02 07:12:44;;;;;;;37.57;17.30;;;6.90;99.90;;;;;;4946898;28;20648;-78
2022/03/02 07:15:11;;;;;;;34.07;17.20;;;7.00;99.90;;;;;;4982421;28;20740;-78
2022/03/02 07:17:39;;;;;;;32.30;16.53;;;7.00;99.90;;;;;;4966249;28;20181;-78
2022/03/02 07:20:08;;;;;;;28.70;16.27;;;7.10;99.90;;;;;;4965033;28;20185;-78
2022/03/02 07:22:52;;;;;;;36.50;17.73;;;7.20;99.90;;;;;;4981816;28;20801;-79
2022/03/02 07:25:24;;;;;;;31.27;15.73;;;7.20;99.90;;;;;;4980193;28;20334;-77
2022/03/02 07:27:50;;;;;;;32.80;15.63;;;7.30;99.90;;;;;;4968556;28;20651;-78
2022/03/02 07:30:16;;;;;;;32.53;16.80;;;7.30;99.90;;;;;;4948487;28;20207;-78
2022/03/02 07:32:45;;;;;;;28.83;15.43;;;7.40;99.90;;;;;;4948422;28;20655;-78
2022/03/02 07:35:12;;;;;;;31.23;16.63;;;7.50;99.90;;;;;;4948580;28;20336;-77
2022/03/02 07:37:40;;;;;;;35.53;15.93;;;7.50;99.90;;;;;;4961692;28;20193;-77
2022/03/02 07:40:07;;;;;;;29.47;16.33;;;7.60;99.90;;;;;;4953008;28;20275;-77
2022/03/02 07:42:33;;;;;;;34.90;16.30;;;7.70;99.90;;;;;;4964315;28;20208;-79
2022/03/02 07:45:00;;;;;;;27.63;15.93;;;7.80;99.90;;;;;;4953804;28;20192;-78
2022/03/02 07:47:26;;;;;;;34.07;17.13;;;7.80;99.90;;;;;;4978370;28;20300;-77
2022/03/02 07:49:52;;;;;;;33.00;15.23;;;7.90;99.90;;;;;;4956360;28;20216;-79
2022/03/02 07:52:20;;;;;;;35.37;16.17;;;7.80;99.90;;;;;;4979895;28;20196;-77
2022/03/02 07:54:51;;;;;;;28.33;15.30;;;7.80;99.90;;;;;;4963460;28;20219;-77
2022/03/02 07:57:17;;;;;;;28.57;14.80;;;7.80;99.90;;;;;;4963896;28;20564;-79
2022/03/02 07:59:44;;;;;;;32.13;15.17;;;7.80;99.90;;;;;;4946312;28;20566;-77
2022/03/02 08:02:12;;;;;;;29.07;16.13;;;7.80;99.90;;;;;;4963595;28;20241;-79
2022/03/02 08:04:39;;;;;;;32.90;15.27;;;7.80;99.90;;;;;;4963889;28;20266;-78
2022/03/02 08:07:06;;;;;;;31.40;15.27;;;7.80;99.90;;;;;;4962951;28;20196;-79
2022/03/02 08:09:32;;;;;;;29.63;15.70;;;7.80;99.90;;;;;;4962749;28;20638;-78
2022/03/02 08:11:59;;;;;;;32.00;15.37;;;7.80;99.90;;;;;;4963285;28;20200;-78
2022/03/02 08:14:25;;;;;;;31.17;15.60;;;7.80;99.90;;;;;;4946874;28;20695;-78
2022/03/02 08:16:52;;;;;;;31.27;15.77;;;7.90;99.90;;;;;;4961825;28;20189;-78
2022/03/02 08:19:19;;;;;;;26.47;15.00;;;7.90;99.90;;;;;;4962848;28;20205;-79
2022/03/02 08:21:55;;;;;;;31.33;15.17;;;8.00;99.90;;;;;;4980767;28;20184;-78
2022/03/02 08:24:26;;;;;;;28.20;15.43;;;8.00;99.90;;;;;;4962269;28;20180;-78
2022/03/02 08:26:57;;;;;;;31.77;15.63;;;8.10;99.90;;;;;;4979922;28;20234;-79
2022/03/02 08:29:26;;;;;;;28.47;15.33;;;8.10;99.90;;;;;;4969404;28;20729;-79
2022/03/02 08:31:54;;;;;;;30.17;15.50;;;8.20;99.90;;;;;;4965306;28;20202;-78
2022/03/02 08:34:20;;;;;;;31.43;15.60;;;8.30;99.90;;;;;;4962909;28;20267;-78
2022/03/02 08:36:49;;;;;;;28.97;15.20;;;8.30;99.90;;;;;;4961403;28;20469;-78
2022/03/02 08:39:15;;;;;;;28.77;14.60;;;8.40;99.90;;;;;;4960694;28;20841;-78
2022/03/02 08:41:41;;;;;;;25.30;14.13;;;8.60;99.90;;;;;;4961832;28;20199;-79
2022/03/02 08:44:08;;;;;;;31.07;14.93;;;9.20;99.90;;;;;;4946963;28;20205;-78
2022/03/02 08:46:34;;;;;;;31.80;15.27;;;10.20;99.90;;;;;;4978992;28;20822;-78
2022/03/02 08:49:03;;;;;;;25.13;13.90;;;11.30;99.90;;;;;;4946738;28;20196;-78
2022/03/02 08:51:28;;;;;;;25.37;13.43;;;12.30;99.90;;;;;;4980147;28;20222;-78
2022/03/02 08:53:58;;;;;;;23.47;13.00;;;13.20;99.90;;;;;;4946728;28;20244;-78
2022/03/02 08:56:25;;;;;;;24.53;13.27;;;13.90;99.90;;;;;;4977026;28;20181;-78
2022/03/02 08:58:53;;;;;;;23.67;13.87;;;14.60;99.90;;;;;;4960697;28;20202;-77
2022/03/02 09:01:19;;;;;;;26.83;13.77;;;15.20;99.90;;;;;;4960124;28;20204;-78
2022/03/02 09:03:51;;;;;;;26.23;14.40;;;15.70;99.90;;;;;;4948956;28;20302;-78
2022/03/02 09:06:20;;;;;;;22.87;13.47;;;16.30;99.90;;;;;;4964767;28;20194;-78
2022/03/02 09:08:47;;;;;;;22.07;13.23;;;16.30;99.90;;;;;;4968257;28;20217;-79
2022/03/02 09:11:12;;;;;;;21.93;12.77;;;16.50;99.90;;;;;;4972716;28;20197;-78
2022/03/02 09:13:39;;;;;;;22.50;12.60;;;16.70;99.90;;;;;;4950639;28;20266;-78
2022/03/02 09:16:07;;;;;;;20.37;12.30;;;17.00;99.90;;;;;;4965051;28;20463;-77
2022/03/02 09:18:34;;;;;;;21.77;12.87;;;17.50;99.40;;;;;;4950760;28;20276;-78
2022/03/02 09:21:03;;;;;;;26.90;13.00;;;18.10;98.10;;;;;;4948931;28;20688;-78
2022/03/02 09:23:31;;;;;;;23.87;14.10;;;18.80;96.70;;;;;;4948533;28;20199;-77
2022/03/02 09:26:02;;;;;;;22.07;12.07;;;19.40;95.10;;;;;;4982433;28;20376;-78
2022/03/02 09:28:34;;;;;;;24.50;12.77;;;19.80;93.60;;;;;;4980702;28;20709;-77
2022/03/02 09:31:03;;;;;;;20.07;12.60;;;20.20;92.30;;;;;;4982471;28;20304;-78
2022/03/02 09:33:31;;;;;;;22.03;13.27;;;20.80;90.90;;;;;;4966022;28;20274;-78
2022/03/02 09:36:00;;;;;;;21.27;12.67;;;21.20;89.00;;;;;;4964908;28;20196;-78
2022/03/02 09:38:27;;;;;;;19.27;11.87;;;21.20;86.00;;;;;;4984570;28;20200;-77
2022/03/02 09:40:55;;;;;;;18.33;11.33;;;21.30;83.80;;;;;;4966608;28;20191;-78
2022/03/02 09:43:26;;;;;;;20.10;12.37;;;21.60;81.50;;;;;;4966416;28;20215;-77
2022/03/02 09:45:56;;;;;;;17.97;11.60;;;21.50;78.50;;;;;;4982671;28;20188;-78
2022/03/02 09:48:34;;;;;;;20.60;12.27;;;21.80;76.90;;;;;;4963218;28;20189;-79
2022/03/02 09:51:06;;;;;;;21.07;12.63;;;22.20;74.20;;;;;;4964078;28;20285;-78
2022/03/02 09:53:35;;;;;;;16.30;11.13;;;22.50;72.80;;;;;;4963942;28;20177;-78
2022/03/02 09:56:06;;;;;;;23.33;12.30;;;22.80;70.10;;;;;;4980716;28;20182;-78
2022/03/02 09:58:37;;;;;;;19.37;12.57;;;23.10;67.50;;;;;;4981378;28;20316;-77
2022/03/02 10:01:08;;;;;;;19.13;12.23;;;23.60;65.20;;;;;;4962796;28;20223;-79
2022/03/02 10:03:36;;;;;;;19.57;12.10;;;23.80;63.10;;;;;;4968211;28;20658;-78
2022/03/02 10:06:05;;;;;;;20.17;11.37;;;23.90;61.30;;;;;;4965196;28;20553;-78
2022/03/02 10:08:35;;;;;;;20.77;11.93;;;24.20;59.90;;;;;;4964794;28;20240;-78
2022/03/02 10:11:06;;;;;;;17.97;11.70;;;24.30;58.70;;;;;;4948070;28;20199;-78
2022/03/02 10:13:35;;;;;;;24.40;12.60;;;24.70;57.80;;;;;;4955921;28;20353;-78
2022/03/02 10:16:04;;;;;;;17.87;11.80;;;25.20;56.80;;;;;;4963456;28;20195;-78
2022/03/02 10:18:34;;;;;;;17.07;11.80;;;25.60;55.10;;;;;;4963732;28;20686;-77
2022/03/02 10:21:03;;;;;;;17.83;12.30;;;25.60;53.40;;;;;;4980410;28;20203;-79
2022/03/02 10:23:36;;;;;;;17.70;11.83;;;25.90;52.90;;;;;;4984325;28;20332;-78
2022/03/02 10:26:18;;;;;;;18.00;12.47;;;26.30;51.30;;;;;;4967284;28;20369;-78
2022/03/02 10:28:45;;;;;;;23.30;13.10;;;26.50;50.10;;;;;;4984645;28;20205;-78
2022/03/02 10:31:29;;;;;;;18.63;12.20;;;26.60;49.60;;;;;;4989594;28;20660;-78
2022/03/02 10:34:01;;;;;;;22.37;14.10;;;25.80;47.30;;;;;;4986933;28;20213;-79
2022/03/02 10:36:29;;;;;;;18.40;12.50;;;24.00;47.50;;;;;;4970991;28;20201;-79
2022/03/02 10:38:57;;;;;;;19.73;12.80;;;21.60;48.90;;;;;;4969075;28;20207;-79
2022/03/02 10:41:26;;;;;;;21.27;12.63;;;19.60;50.80;;;;;;4966338;28;20657;-78
2022/03/02 10:44:15;;;;;;;23.77;12.57;;;18.00;52.60;;;;;;4962771;28;20869;-78
2022/03/02 10:46:57;;;;;;;21.67;12.20;;;16.70;54.30;;;;;;4980422;28;21002;-79
2022/03/02 10:49:24;;;;;;;27.13;13.30;;;15.60;55.70;;;;;;4965254;28;20199;-79
2022/03/02 10:51:49;;;;;;;22.73;13.30;;;14.90;56.90;;;;;;4965229;28;20523;-79
2022/03/02 10:54:22;;;;;;;22.07;12.63;;;14.30;57.80;;;;;;4947910;28;20254;-79
2022/03/02 10:56:52;;;;;;;23.23;12.23;;;13.80;58.50;;;;;;4964720;28;20184;-79
2022/03/02 10:59:21;;;;;;;23.40;12.00;;;13.50;59.20;;;;;;4962125;28;20207;-79
2022/03/02 11:01:50;;;;;;;22.87;12.43;;;13.20;59.80;;;;;;4964269;28;21035;-78
2022/03/02 11:04:19;;;;;;;24.87;12.63;;;13.00;60.30;;;;;;4963839;28;20222;-78
2022/03/02 11:06:45;;;;;;;25.27;12.90;;;12.90;60.90;;;;;;4963044;28;20334;-78
2022/03/02 11:09:11;;;;;;;25.43;12.30;;;13.40;62.30;;;;;;4968037;28;21152;-78
2022/03/02 11:11:37;;;;;;;23.40;12.37;;;15.00;63.60;;;;;;4947892;28;20205;-79
2022/03/02 11:14:04;;;;;;;22.60;12.87;;;17.10;63.00;;;;;;4947543;28;20212;-79
2022/03/02 11:16:31;;;;;;;22.87;12.13;;;19.20;60.20;;;;;;4959744;28;20196;-78
2022/03/02 11:19:13;;;;;;;21.57;13.07;;;21.00;58.00;;;;;;4962509;28;20702;-78
2022/03/02 11:21:40;;;;;;;22.43;12.97;;;22.40;56.00;;;;;;4979181;28;20197;-79
2022/03/02 11:24:08;;;;;;;22.97;12.57;;;23.70;54.50;;;;;;4947116;28;20204;-79
2022/03/02 11:26:41;;;;;;;20.17;13.43;;;24.80;53.00;;;;;;4960920;28;20328;-79
2022/03/02 11:29:13;;;;;;;18.20;12.27;;;25.60;51.30;;;;;;4947631;28;20220;-78
2022/03/02 11:31:52;;;;;;;19.40;12.80;;;26.00;50.30;;;;;;4960672;28;20679;-79
2022/03/02 11:34:23;;;;;;;22.73;12.90;;;25.70;48.70;;;;;;4963031;28;20609;-78
2022/03/02 11:37:00;;;;;;;19.73;13.00;;;25.90;49.10;;;;;;4962403;28;20710;-78
2022/03/02 11:39:28;;;;;;;19.73;12.20;;;26.00;47.90;;;;;;4961504;28;20186;-77
2022/03/02 11:42:05;;;;;;;18.57;12.37;;;25.90;47.30;;;;;;4979748;28;21086;-79
2022/03/02 11:44:34;;;;;;;24.17;13.80;;;25.00;46.00;;;;;;4979612;28;20674;-78
2022/03/02 11:47:12;;;;;;;19.73;12.93;;;23.50;46.50;;;;;;4963892;28;20679;-79
2022/03/02 11:49:45;;;;;;;21.40;13.00;;;21.80;47.50;;;;;;4963621;28;20301;-79
2022/03/02 11:52:22;;;;;;;20.90;13.87;;;20.10;48.90;;;;;;4961766;28;20200;-79
2022/03/02 11:54:49;;;;;;;22.93;13.27;;;18.70;50.30;;;;;;4979971;28;20207;-79
2022/03/02 11:57:16;;;;;;;22.13;13.13;;;17.70;51.70;;;;;;4962940;28;20186;-79
2022/03/02 11:59:42;;;;;;;21.23;13.13;;;16.90;52.90;;;;;;4965034;28;20197;-78
2022/03/02 12:02:19;;;;;;;20.57;13.20;;;16.30;53.90;;;;;;4979805;28;20184;-78
2022/03/02 12:05:07;;;;;;;26.23;12.87;;;15.90;54.90;;;;;;4969344;28;20239;-78
2022/03/02 12:07:50;;;;;;;24.03;13.70;;;15.50;55.80;;;;;;4960679;28;20199;-78
2022/03/02 12:10:19;;;;;;;24.83;14.03;;;15.10;56.50;;;;;;4964042;28;20375;-78
2022/03/02 12:12:45;;;;;;;22.03;12.93;;;14.90;57.00;;;;;;4978610;28;20192;-77
2022/03/02 12:15:11;;;;;;;25.23;13.30;;;14.70;57.50;;;;;;4979586;28;20208;-79
2022/03/02 12:17:37;;;;;;;23.90;13.30;;;14.60;57.80;;;;;;4946118;28;20234;-78
2022/03/02 12:20:10;;;;;;;20.60;12.40;;;14.50;58.20;;;;;;4979157;28;20646;-79
2022/03/02 12:22:41;;;;;;;26.53;13.53;;;14.20;58.60;;;;;;4962299;28;20184;-79
2022/03/02 12:25:10;;;;;;;25.57;13.30;;;14.00;59.00;;;;;;4980870;28;20192;-78
2022/03/02 12:27:36;;;;;;;25.40;12.73;;;13.80;59.70;;;;;;4979886;28;20602;-79
2022/03/02 12:30:05;;;;;;;24.90;13.97;;;13.60;60.40;;;;;;4981722;28;20191;-78
2022/03/02 12:32:36;;;;;;;22.73;12.73;;;13.40;61.00;;;;;;4968536;28;20202;-77
2022/03/02 12:35:06;;;;;;;23.60;13.30;;;13.30;61.50;;;;;;4964404;28;20226;-79
2022/03/02 12:37:33;;;;;;;26.33;13.10;;;13.30;61.90;;;;;;4969247;28;20648;-78